createdAt,value
2017-08-04T00:01:15.326Z,20.08
2017-08-04T00:03:42.813Z,20.13
2017-08-04T00:06:10.250Z,20.10
2017-08-04T00:08:37.736Z,20.13
2017-08-04T00:11:05.196Z,20.20
2017-08-04T00:13:32.633Z,20.22
2017-08-04T00:16:00.201Z,20.16
2017-08-04T00:18:27.662Z,20.20
2017-08-04T00:20:55.113Z,20.02
2017-08-04T00:23:22.551Z,20.08
2017-08-04T00:25:50.009Z,20.09
2017-08-04T00:28:17.477Z,20.07
2017-08-04T00:30:45.066Z,19.85
2017-08-04T00:33:12.529Z,19.76
2017-08-04T00:35:39.990Z,19.62
2017-08-04T00:38:07.466Z,19.71
2017-08-04T00:40:34.983Z,19.74
2017-08-04T00:43:02.434Z,19.82
2017-08-04T00:45:29.937Z,19.83
2017-08-04T00:47:57.465Z,19.39
2017-08-04T00:50:25.633Z,19.36
2017-08-04T00:52:53.186Z,19.51
2017-08-04T00:55:20.749Z,19.63
2017-08-04T00:57:48.219Z,19.49
2017-08-04T01:00:15.697Z,19.49
2017-08-04T01:02:43.226Z,19.61
2017-08-04T01:05:10.690Z,19.79
2017-08-04T01:07:38.204Z,19.74
2017-08-04T01:10:05.665Z,19.82
2017-08-04T01:12:33.257Z,19.90
2017-08-04T01:15:00.804Z,20.02
2017-08-04T01:17:28.372Z,19.90
2017-08-04T01:19:55.814Z,19.99
2017-08-04T01:22:23.378Z,20.13
2017-08-04T01:24:50.827Z,20.18
2017-08-04T01:27:20.465Z,20.23
2017-08-04T01:29:47.922Z,20.12
2017-08-04T01:32:15.434Z,20.21
2017-08-04T01:34:42.913Z,20.13
2017-08-04T01:37:10.467Z,20.13
2017-08-04T01:39:40.180Z,20.20
2017-08-04T01:42:07.633Z,20.22
2017-08-04T01:44:35.109Z,20.06
2017-08-04T01:47:02.571Z,20.20
2017-08-04T01:49:30.113Z,20.27
2017-08-04T01:51:57.567Z,20.16
2017-08-04T01:54:25.041Z,20.20
2017-08-04T01:56:52.487Z,20.21
2017-08-04T01:59:19.962Z,20.29
2017-08-04T02:01:47.420Z,20.25
2017-08-04T02:04:16.846Z,20.11
2017-08-04T02:06:44.347Z,20.10
2017-08-04T02:09:11.908Z,20.07
2017-08-04T02:11:39.485Z,20.08
2017-08-04T02:14:07.081Z,20.11
2017-08-04T02:16:34.965Z,19.92
2017-08-04T02:19:02.467Z,20.04
2017-08-04T02:21:30.086Z,19.86
2017-08-04T02:23:57.563Z,19.96
2017-08-04T02:26:25.040Z,19.80
2017-08-04T02:28:52.997Z,19.87
2017-08-04T02:31:20.460Z,19.84
2017-08-04T02:33:48.012Z,20.08
2017-08-04T02:36:15.497Z,20.06
2017-08-04T02:38:42.958Z,20.06
2017-08-04T02:41:10.449Z,20.04
2017-08-04T02:43:37.942Z,20.01
2017-08-04T02:46:05.406Z,19.97
2017-08-04T02:48:32.957Z,19.99
2017-08-04T02:51:00.565Z,20.01
2017-08-04T02:53:28.086Z,20.01
2017-08-04T02:55:55.641Z,20.07
2017-08-04T02:58:23.200Z,20.07
2017-08-04T03:00:50.701Z,19.96
2017-08-04T03:03:18.153Z,19.97
2017-08-04T03:05:45.673Z,19.84
2017-08-04T03:08:13.211Z,19.77
2017-08-04T03:10:40.690Z,19.71
2017-08-04T03:13:08.255Z,19.81
2017-08-04T03:15:35.730Z,19.85
2017-08-04T03:18:03.265Z,19.70
2017-08-04T03:20:30.724Z,19.52
2017-08-04T03:22:58.201Z,19.68
2017-08-04T03:25:25.720Z,19.81
2017-08-04T03:27:53.229Z,19.93
2017-08-04T03:30:20.692Z,19.88
2017-08-04T03:32:49.271Z,19.98
2017-08-04T03:35:16.818Z,19.93
2017-08-04T03:37:44.295Z,20.11
2017-08-04T03:40:11.805Z,20.03
2017-08-04T03:42:39.255Z,20.10
2017-08-04T03:45:07.022Z,20.02
2017-08-04T03:47:34.468Z,20.07
2017-08-04T03:50:01.932Z,20.05
2017-08-04T03:52:29.389Z,20.16
2017-08-04T03:54:56.855Z,20.26
2017-08-04T03:57:24.379Z,20.35
2017-08-04T03:59:51.847Z,20.45
2017-08-04T04:02:19.311Z,20.52
2017-08-04T04:04:47.390Z,20.62
2017-08-04T04:07:14.937Z,20.59
2017-08-04T04:09:42.403Z,20.74
2017-08-04T04:12:09.958Z,20.67
2017-08-04T04:14:37.464Z,20.74
2017-08-04T04:17:04.963Z,20.80
2017-08-04T04:19:32.441Z,20.75
2017-08-04T04:22:00.649Z,20.64
2017-08-04T04:24:28.110Z,20.51
2017-08-04T04:26:55.624Z,20.42
2017-08-04T04:29:23.085Z,20.38
2017-08-04T04:31:50.619Z,20.32
2017-08-04T04:34:18.307Z,20.37
2017-08-04T04:36:45.779Z,20.48
2017-08-04T04:39:13.301Z,20.51
2017-08-04T04:41:40.783Z,20.50
2017-08-04T04:44:08.349Z,20.61
2017-08-04T04:46:36.028Z,20.66
2017-08-04T04:49:03.592Z,20.77
2017-08-04T04:51:31.081Z,20.77
2017-08-04T04:53:58.551Z,20.85
2017-08-04T04:56:26.145Z,20.85
2017-08-04T04:58:53.686Z,20.89
2017-08-04T05:01:21.237Z,20.70
2017-08-04T05:03:48.729Z,20.84
2017-08-04T05:06:16.197Z,20.76
2017-08-04T05:08:43.673Z,20.94
2017-08-04T05:11:11.130Z,21.20
2017-08-04T05:13:38.618Z,21.10
2017-08-04T05:16:06.124Z,21.21
2017-08-04T05:18:33.617Z,21.20
2017-08-04T05:21:01.067Z,21.16
2017-08-04T05:23:28.535Z,21.37
2017-08-04T05:25:56.014Z,21.46
2017-08-04T05:28:23.494Z,21.56
2017-08-04T05:30:50.943Z,21.56
2017-08-04T05:33:18.478Z,21.33
2017-08-04T05:35:45.951Z,21.69
2017-08-04T05:38:13.497Z,21.57
2017-08-04T05:40:40.943Z,21.27
2017-08-04T05:43:08.421Z,21.24
2017-08-04T05:45:35.922Z,21.24
2017-08-04T05:48:03.444Z,21.11
2017-08-04T05:50:30.907Z,21.26
2017-08-04T05:52:58.355Z,21.25
2017-08-04T05:55:25.939Z,21.46
2017-08-04T05:57:53.463Z,21.58
2017-08-04T06:00:20.953Z,21.51
2017-08-04T06:02:48.471Z,21.56
2017-08-04T06:05:15.953Z,21.62
2017-08-04T06:07:43.419Z,22.04
2017-08-04T06:10:10.941Z,21.84
2017-08-04T06:12:38.395Z,21.91
2017-08-04T06:15:06.425Z,21.94
2017-08-04T06:17:33.911Z,21.93
2017-08-04T06:20:01.473Z,22.17
2017-08-04T06:22:28.929Z,22.12
2017-08-04T06:24:56.406Z,22.06
2017-08-04T06:27:23.865Z,22.20
2017-08-04T06:29:51.357Z,22.18
2017-08-04T06:32:18.834Z,22.27
2017-08-04T06:34:46.279Z,22.29
2017-08-04T06:37:13.739Z,22.45
2017-08-04T06:39:41.184Z,22.71
2017-08-04T06:42:08.680Z,22.63
2017-08-04T06:44:36.141Z,22.56
2017-08-04T06:47:03.611Z,22.75
2017-08-04T06:49:42.782Z,22.85
2017-08-04T06:52:22.178Z,22.67
2017-08-04T06:55:01.498Z,22.45
2017-08-04T06:57:28.986Z,22.71
2017-08-04T06:59:56.427Z,22.70
2017-08-04T07:02:24.179Z,22.62
2017-08-04T07:04:51.750Z,22.79
2017-08-04T07:07:19.290Z,22.80
2017-08-04T07:09:46.753Z,22.95
2017-08-04T07:12:14.297Z,22.99
2017-08-04T07:14:42.169Z,23.07
2017-08-04T07:17:09.662Z,22.93
2017-08-04T07:19:37.188Z,22.86
2017-08-04T07:22:04.692Z,23.08
2017-08-04T07:24:32.165Z,23.28
2017-08-04T07:27:00.121Z,23.34
2017-08-04T07:29:27.588Z,23.35
2017-08-04T07:31:55.063Z,23.51
2017-08-04T07:34:22.565Z,23.58
2017-08-04T07:36:50.092Z,23.51
2017-08-04T07:39:17.569Z,23.68
2017-08-04T07:41:45.106Z,23.47
2017-08-04T07:44:12.590Z,23.49
2017-08-04T07:46:40.055Z,23.50
2017-08-04T07:49:07.515Z,23.66
2017-08-04T07:51:35.061Z,23.88
2017-08-04T07:54:02.527Z,23.92
2017-08-04T07:56:29.995Z,23.93
2017-08-04T07:58:57.511Z,23.79
2017-08-04T08:01:24.979Z,23.77
2017-08-04T08:03:52.446Z,23.76
2017-08-04T08:06:19.891Z,23.83
2017-08-04T08:08:47.366Z,23.97
2017-08-04T08:11:14.913Z,23.87
2017-08-04T08:13:42.457Z,23.84
2017-08-04T08:16:10.072Z,23.82
2017-08-04T08:18:37.575Z,24.09
2017-08-04T08:21:05.056Z,23.90
2017-08-04T08:23:32.613Z,23.83
2017-08-04T08:26:00.161Z,23.81
2017-08-04T08:28:27.607Z,23.98
2017-08-04T08:30:55.086Z,23.87
2017-08-04T08:33:22.589Z,24.04
2017-08-04T08:35:50.077Z,24.27
2017-08-04T08:38:18.535Z,24.65
2017-08-04T08:40:46.021Z,24.79
2017-08-04T08:43:13.480Z,24.57
2017-08-04T08:45:41.029Z,24.67
2017-08-04T08:48:08.474Z,24.76
2017-08-04T08:50:36.044Z,24.70
2017-08-04T08:53:03.501Z,24.48
2017-08-04T08:55:30.967Z,24.46
2017-08-04T08:57:59.102Z,24.50
2017-08-04T09:00:26.597Z,24.70
2017-08-04T09:02:54.145Z,24.69
2017-08-04T09:05:21.719Z,24.51
2017-08-04T09:07:49.203Z,24.59
2017-08-04T09:10:17.111Z,24.89
2017-08-04T09:12:44.585Z,24.81
2017-08-04T09:15:12.045Z,24.83
2017-08-04T09:17:39.600Z,24.95
2017-08-04T09:20:07.170Z,25.10
2017-08-04T09:22:34.643Z,24.91
2017-08-04T09:25:02.113Z,25.08
2017-08-04T09:27:29.587Z,25.07
2017-08-04T09:29:57.073Z,24.81
2017-08-04T09:32:24.649Z,24.92
2017-08-04T09:34:52.114Z,25.08
2017-08-04T09:37:19.593Z,25.18
2017-08-04T09:39:47.047Z,24.91
2017-08-04T09:42:14.529Z,25.11
2017-08-04T09:44:41.987Z,25.03
2017-08-04T09:47:09.473Z,25.39
2017-08-04T09:49:36.955Z,25.83
2017-08-04T09:52:04.516Z,26.30
2017-08-04T09:54:31.979Z,25.88
2017-08-04T09:56:59.453Z,26.06
2017-08-04T09:59:26.973Z,25.70
2017-08-04T10:01:54.431Z,26.01
2017-08-04T10:04:22.042Z,25.75
2017-08-04T10:06:49.503Z,25.59
2017-08-04T10:09:17.005Z,25.64
2017-08-04T10:11:44.584Z,25.52
2017-08-04T10:14:12.048Z,25.62
2017-08-04T10:16:39.513Z,25.72
2017-08-04T10:19:07.041Z,25.74
2017-08-04T10:21:34.507Z,26.05
2017-08-04T10:24:02.000Z,25.75
2017-08-04T10:26:29.465Z,26.04
2017-08-04T10:28:56.949Z,25.62
2017-08-04T10:31:24.416Z,25.53
2017-08-04T10:33:51.890Z,25.48
2017-08-04T10:36:19.433Z,25.27
2017-08-04T10:38:47.005Z,25.31
2017-08-04T10:41:14.591Z,25.41
2017-08-04T10:43:42.070Z,25.94
2017-08-04T10:46:09.574Z,25.89
2017-08-04T10:48:37.068Z,26.34
2017-08-04T10:51:04.593Z,25.91
2017-08-04T10:53:32.057Z,26.28
2017-08-04T10:55:59.523Z,26.60
2017-08-04T10:58:27.066Z,26.48
2017-08-04T11:00:54.533Z,26.95
2017-08-04T11:03:22.137Z,26.98
2017-08-04T11:05:49.623Z,26.89
2017-08-04T11:08:17.063Z,26.97
2017-08-04T11:10:44.527Z,26.78
2017-08-04T11:13:11.991Z,26.98
2017-08-04T11:15:39.656Z,27.05
2017-08-04T11:18:07.117Z,26.81
2017-08-04T11:20:34.603Z,26.52
2017-08-04T11:23:02.124Z,26.45
2017-08-04T11:25:29.605Z,26.39
2017-08-04T11:27:57.549Z,26.92
2017-08-04T11:30:25.074Z,26.76
2017-08-04T11:32:52.664Z,26.58
2017-08-04T11:35:20.130Z,26.57
2017-08-04T11:37:47.717Z,26.61
2017-08-04T11:40:15.473Z,26.71
2017-08-04T11:42:43.021Z,26.80
2017-08-04T11:45:10.581Z,26.85
2017-08-04T11:47:38.121Z,26.92
2017-08-04T11:50:05.583Z,27.02
2017-08-04T11:52:33.055Z,27.16
2017-08-04T11:55:00.503Z,27.07
2017-08-04T11:57:27.985Z,26.78
2017-08-04T11:59:55.442Z,26.75
2017-08-04T12:02:22.922Z,26.71
2017-08-04T12:04:52.101Z,26.94
2017-08-04T12:07:19.657Z,26.65
2017-08-04T12:09:47.197Z,26.81
2017-08-04T12:12:14.676Z,26.79
2017-08-04T12:14:42.179Z,26.73
2017-08-04T12:17:09.652Z,26.84
2017-08-04T12:19:37.235Z,26.58
2017-08-04T12:22:04.781Z,26.64
2017-08-04T12:24:32.291Z,26.59
2017-08-04T12:26:59.835Z,26.72
2017-08-04T12:29:27.446Z,26.64
2017-08-04T12:31:55.009Z,26.68
2017-08-04T12:34:22.464Z,26.91
2017-08-04T12:36:50.014Z,26.72
2017-08-04T12:39:17.483Z,26.89
2017-08-04T12:41:45.045Z,27.01
2017-08-04T12:44:12.610Z,26.97
2017-08-04T12:46:40.060Z,27.33
2017-08-04T12:49:07.541Z,27.28
2017-08-04T12:51:35.071Z,27.47
2017-08-04T12:54:02.634Z,27.47
2017-08-04T12:56:30.201Z,27.41
2017-08-04T12:58:57.749Z,27.25
2017-08-04T13:01:25.214Z,27.13
2017-08-04T13:03:52.681Z,27.05
2017-08-04T13:06:20.224Z,26.92
2017-08-04T13:08:47.686Z,27.28
2017-08-04T13:11:15.219Z,27.19
2017-08-04T13:13:42.695Z,27.57
2017-08-04T13:16:10.246Z,27.85
2017-08-04T13:18:37.737Z,28.01
2017-08-04T13:21:05.207Z,28.18
2017-08-04T13:23:32.729Z,28.09
2017-08-04T13:26:00.184Z,28.50
2017-08-04T13:28:27.745Z,28.18
2017-08-04T13:30:55.303Z,27.95
2017-08-04T13:33:22.862Z,28.03
2017-08-04T13:35:50.372Z,28.13
2017-08-04T13:38:23.565Z,28.03
2017-08-04T13:40:51.037Z,28.09
2017-08-04T13:43:18.483Z,28.43
2017-08-04T13:45:45.978Z,27.86
2017-08-04T13:48:13.423Z,27.85
2017-08-04T13:50:40.886Z,27.96
2017-08-04T13:53:08.436Z,28.02
2017-08-04T13:55:35.929Z,28.03
2017-08-04T13:58:03.452Z,27.76
2017-08-04T14:00:30.930Z,28.00
2017-08-04T14:02:58.477Z,28.21
2017-08-04T14:05:26.033Z,28.08
2017-08-04T14:07:54.352Z,28.14
2017-08-04T14:10:21.859Z,28.26
2017-08-04T14:12:49.327Z,27.85
2017-08-04T14:15:16.834Z,27.36
2017-08-04T14:17:44.329Z,27.30
2017-08-04T14:20:11.841Z,27.25
2017-08-04T14:22:39.302Z,27.30
2017-08-04T14:25:06.820Z,27.32
2017-08-04T14:27:34.360Z,27.26
2017-08-04T14:30:01.916Z,27.44
2017-08-04T14:32:29.392Z,27.47
2017-08-04T14:34:56.936Z,27.74
2017-08-04T14:37:24.537Z,27.84
2017-08-04T14:39:52.065Z,27.34
2017-08-04T14:42:19.617Z,27.29
2017-08-04T14:44:47.063Z,27.77
2017-08-04T14:47:14.525Z,27.73
2017-08-04T14:49:41.987Z,27.80
2017-08-04T14:52:09.469Z,27.45
2017-08-04T14:54:36.999Z,27.10
2017-08-04T14:57:04.548Z,27.23
2017-08-04T14:59:32.006Z,27.17
2017-08-04T15:01:59.499Z,27.22
2017-08-04T15:04:27.034Z,27.49
2017-08-04T15:06:54.513Z,27.33
2017-08-04T15:09:22.043Z,27.24
2017-08-04T15:11:49.547Z,27.27
2017-08-04T15:14:17.005Z,27.21
2017-08-04T15:16:44.713Z,27.25
2017-08-04T15:19:12.305Z,27.41
2017-08-04T15:21:39.878Z,27.64
2017-08-04T15:24:07.397Z,27.78
2017-08-04T15:26:34.863Z,27.67
2017-08-04T15:29:02.409Z,27.55
2017-08-04T15:31:29.873Z,27.77
2017-08-04T15:33:57.348Z,27.86
2017-08-04T15:36:24.882Z,27.61
2017-08-04T15:38:52.440Z,27.60
2017-08-04T15:41:19.903Z,27.91
2017-08-04T15:43:47.395Z,27.58
2017-08-04T15:46:14.922Z,27.71
2017-08-04T15:48:42.483Z,27.51
2017-08-04T15:51:09.932Z,27.37
2017-08-04T15:53:37.405Z,27.57
2017-08-04T15:56:04.890Z,27.76
2017-08-04T15:58:32.406Z,27.52
2017-08-04T16:00:59.965Z,27.08
2017-08-04T16:03:27.459Z,27.33
2017-08-04T16:05:54.937Z,27.39
2017-08-04T16:08:22.397Z,27.45
2017-08-04T16:10:49.885Z,27.45
2017-08-04T16:13:17.434Z,27.07
2017-08-04T16:15:44.909Z,27.30
2017-08-04T16:18:12.369Z,27.36
2017-08-04T16:20:39.831Z,27.02
2017-08-04T16:23:07.369Z,26.90
2017-08-04T16:25:34.841Z,26.88
2017-08-04T16:28:02.341Z,27.04
2017-08-04T16:30:29.822Z,26.86
2017-08-04T16:32:57.313Z,26.60
2017-08-04T16:35:24.877Z,26.54
2017-08-04T16:37:52.357Z,26.51
2017-08-04T16:40:19.827Z,26.73
2017-08-04T16:42:47.279Z,26.74
2017-08-04T16:45:14.879Z,26.63
2017-08-04T16:47:42.361Z,26.60
2017-08-04T16:50:09.833Z,26.45
2017-08-04T16:52:37.321Z,26.53
2017-08-04T16:55:04.868Z,26.32
2017-08-04T16:57:32.466Z,26.25
2017-08-04T16:59:59.973Z,26.13
2017-08-04T17:02:27.488Z,26.19
2017-08-04T17:04:54.968Z,26.27
2017-08-04T17:07:22.447Z,26.20
2017-08-04T17:09:49.916Z,26.06
2017-08-04T17:12:17.383Z,26.10
2017-08-04T17:14:44.843Z,26.17
2017-08-04T17:17:12.345Z,26.11
2017-08-04T17:19:39.798Z,25.97
2017-08-04T17:22:07.343Z,25.86
2017-08-04T17:24:34.837Z,26.10
2017-08-04T17:27:02.297Z,26.20
2017-08-04T17:29:29.780Z,26.18
2017-08-04T17:31:57.300Z,26.06
2017-08-04T17:34:24.831Z,26.36
2017-08-04T17:36:52.279Z,26.31
2017-08-04T17:39:19.765Z,26.11
2017-08-04T17:41:47.225Z,26.12
2017-08-04T17:44:14.699Z,26.13
2017-08-04T17:46:42.219Z,26.10
2017-08-04T17:49:09.786Z,26.14
2017-08-04T17:51:37.339Z,26.20
2017-08-04T17:54:04.900Z,26.30
2017-08-04T17:56:32.463Z,26.17
2017-08-04T17:58:59.963Z,25.84
2017-08-04T18:01:27.425Z,25.86
2017-08-04T18:03:54.908Z,25.67
2017-08-04T18:06:22.352Z,25.68
2017-08-04T18:08:49.878Z,25.48
2017-08-04T18:11:17.397Z,25.31
2017-08-04T18:13:44.876Z,25.24
2017-08-04T18:16:12.341Z,25.26
2017-08-04T18:18:39.803Z,25.24
2017-08-04T18:21:07.326Z,25.15
2017-08-04T18:23:34.887Z,25.17
2017-08-04T18:26:02.399Z,25.22
2017-08-04T18:28:29.851Z,24.94
2017-08-04T18:30:57.325Z,24.84
2017-08-04T18:33:24.838Z,24.77
2017-08-04T18:35:52.330Z,24.68
2017-08-04T18:38:19.791Z,24.68
2017-08-04T18:40:47.269Z,24.69
2017-08-04T18:43:14.742Z,24.78
2017-08-04T18:45:42.454Z,24.56
2017-08-04T18:48:09.990Z,24.43
2017-08-04T18:50:37.533Z,24.51
2017-08-04T18:53:05.079Z,24.40
2017-08-04T18:55:32.631Z,24.37
2017-08-04T18:58:00.092Z,24.36
2017-08-04T19:00:27.601Z,24.34
2017-08-04T19:02:55.137Z,24.37
2017-08-04T19:05:22.638Z,24.23
2017-08-04T19:07:50.083Z,24.09
2017-08-04T19:10:17.567Z,23.88
2017-08-04T19:12:45.152Z,23.94
2017-08-04T19:15:12.627Z,23.79
2017-08-04T19:17:40.101Z,23.62
2017-08-04T19:20:07.625Z,23.35
2017-08-04T19:22:35.182Z,23.05
2017-08-04T19:25:02.654Z,23.02
2017-08-04T19:27:30.155Z,22.91
2017-08-04T19:29:57.634Z,22.63
2017-08-04T19:32:25.103Z,22.55
2017-08-04T19:34:52.585Z,22.47
2017-08-04T19:37:20.085Z,22.33
2017-08-04T19:39:47.547Z,22.29
2017-08-04T19:42:15.014Z,22.05
2017-08-04T19:44:42.476Z,22.36
2017-08-04T19:47:10.046Z,22.42
2017-08-04T19:49:37.513Z,22.43
2017-08-04T19:52:04.993Z,22.39
2017-08-04T19:54:32.447Z,22.18
2017-08-04T19:56:59.963Z,22.15
2017-08-04T19:59:27.423Z,21.68
2017-08-04T20:01:54.871Z,21.58
2017-08-04T20:04:22.638Z,21.69
2017-08-04T20:06:50.095Z,21.57
2017-08-04T20:09:17.555Z,21.56
2017-08-04T20:11:45.013Z,21.47
2017-08-04T20:14:12.481Z,21.16
2017-08-04T20:16:40.346Z,20.95
2017-08-04T20:19:07.905Z,21.04
2017-08-04T20:21:35.405Z,21.06
2017-08-04T20:24:02.908Z,20.85
2017-08-04T20:26:30.359Z,20.74
2017-08-04T20:28:58.910Z,20.68
2017-08-04T20:31:26.815Z,20.50
2017-08-04T20:33:54.493Z,20.52
2017-08-04T20:36:22.078Z,20.45
2017-08-04T20:38:49.601Z,20.45
2017-08-04T20:41:17.456Z,20.42
2017-08-04T20:43:44.984Z,20.04
2017-08-04T20:46:12.443Z,19.96
2017-08-04T20:48:39.961Z,20.03
2017-08-04T20:51:07.425Z,20.10
2017-08-04T20:53:34.967Z,19.61
2017-08-04T20:56:02.467Z,19.35
2017-08-04T20:58:29.959Z,19.47
2017-08-04T21:00:57.525Z,19.15
2017-08-04T21:03:25.086Z,19.29
2017-08-04T21:05:52.563Z,19.23
2017-08-04T21:08:20.074Z,19.40
2017-08-04T21:10:47.645Z,19.47
2017-08-04T21:13:15.103Z,19.37
2017-08-04T21:15:42.675Z,19.54
2017-08-04T21:18:10.350Z,19.49
2017-08-04T21:20:37.893Z,19.51
2017-08-04T21:23:05.440Z,19.48
2017-08-04T21:25:32.919Z,19.45
2017-08-04T21:28:00.381Z,19.30
2017-08-04T21:30:28.005Z,19.24
2017-08-04T21:32:55.460Z,19.33
2017-08-04T21:35:23.035Z,19.35
2017-08-04T21:37:50.528Z,19.50
2017-08-04T21:40:18.062Z,19.34
2017-08-04T21:42:45.536Z,19.20
2017-08-04T21:45:12.993Z,19.28
2017-08-04T21:47:40.481Z,19.30
2017-08-04T21:50:07.989Z,19.28
2017-08-04T21:52:35.549Z,19.13
2017-08-04T21:55:03.523Z,19.04
2017-08-04T21:57:31.029Z,19.01
2017-08-04T21:59:58.480Z,19.08
2017-08-04T22:02:25.957Z,18.80
2017-08-04T22:04:53.417Z,18.68
2017-08-04T22:07:21.179Z,18.72
2017-08-04T22:09:48.639Z,18.79
2017-08-04T22:12:16.094Z,18.65
2017-08-04T22:14:43.565Z,18.23
2017-08-04T22:17:11.021Z,17.99
2017-08-04T22:19:38.590Z,18.24
2017-08-04T22:22:06.048Z,17.99
2017-08-04T22:24:33.606Z,18.27
2017-08-04T22:27:01.166Z,17.73
2017-08-04T22:29:28.638Z,17.93
2017-08-04T22:31:56.208Z,18.04
2017-08-04T22:34:23.717Z,18.17
2017-08-04T22:36:51.173Z,18.30
2017-08-04T22:39:18.750Z,18.21
2017-08-04T22:41:46.213Z,18.16
2017-08-04T22:44:13.695Z,18.21
2017-08-04T22:46:41.644Z,18.07
2017-08-04T22:49:09.133Z,18.33
2017-08-04T22:51:36.609Z,18.06
2017-08-04T22:54:04.067Z,18.01
2017-08-04T22:56:31.562Z,17.82
2017-08-04T22:58:59.126Z,18.05
2017-08-04T23:01:26.598Z,18.14
2017-08-04T23:03:54.125Z,18.11
2017-08-04T23:06:21.737Z,18.19
2017-08-04T23:08:49.197Z,18.12
2017-08-04T23:11:16.662Z,18.15
2017-08-04T23:13:44.151Z,17.88
2017-08-04T23:16:11.721Z,18.03
2017-08-04T23:18:39.171Z,18.11
2017-08-04T23:21:06.626Z,17.89
2017-08-04T23:23:34.117Z,17.94
2017-08-04T23:26:01.654Z,18.06
2017-08-04T23:28:29.113Z,17.91
2017-08-04T23:30:56.604Z,17.82
2017-08-04T23:33:24.055Z,17.66
2017-08-04T23:35:51.505Z,17.67
2017-08-04T23:38:19.058Z,17.47
2017-08-04T23:40:46.586Z,17.48
2017-08-04T23:43:14.059Z,17.55
2017-08-04T23:45:41.600Z,17.36
2017-08-04T23:48:09.156Z,17.50
2017-08-04T23:50:36.629Z,17.30
2017-08-04T23:53:04.119Z,17.26
2017-08-04T23:55:31.630Z,17.34
2017-08-04T23:57:59.106Z,17.32
